TimeMDT,TemperatureF,Dew PointF,Humidity,Sea Level PressureIn,VisibilityMPH,Wind Direction,Wind SpeedMPH,Gust SpeedMPH,PrecipitationIn,Events,Conditions,WindDirDegrees,DateUTC
12:15 AM,55.0,34.3,46,30.05,10.0,ENE,6.9,-,N/A,,Clear,60,2013-10-01 06:15:00
12:35 AM,54.3,34.7,48,30.05,10.0,ENE,6.9,-,N/A,,Clear,70,2013-10-01 06:35:00
12:55 AM,51.4,34.9,53,30.05,10.0,ENE,6.9,-,N/A,,Clear,60,2013-10-01 06:55:00
1:15 AM,52.2,34.7,51,30.05,10.0,ENE,6.9,-,N/A,,Clear,60,2013-10-01 07:15:00
1:35 AM,52.9,34.5,50,30.05,10.0,NE,5.8,-,N/A,,Clear,50,2013-10-01 07:35:00
1:55 AM,53.6,34.3,48,30.06,10.0,ENE,8.1,-,N/A,,Clear,60,2013-10-01 07:55:00
2:15 AM,51.8,34.7,52,30.06,10.0,NE,5.8,-,N/A,,Clear,50,2013-10-01 08:15:00
2:35 AM,50.5,34.7,55,30.06,10.0,NE,8.1,-,N/A,,Clear,40,2013-10-01 08:35:00
2:55 AM,49.6,34.7,56,30.06,10.0,Calm,Calm,-,N/A,,Clear,0,2013-10-01 08:55:00
3:15 AM,50.2,34.7,55,30.07,10.0,NE,4.6,-,N/A,,Clear,40,2013-10-01 09:15:00
3:35 AM,47.8,35.1,61,30.07,10.0,ENE,5.8,-,N/A,,Clear,70,2013-10-01 09:35:00
3:55 AM,50.5,34.9,55,30.07,10.0,ENE,6.9,-,N/A,,Clear,70,2013-10-01 09:55:00
4:15 AM,47.8,35.1,61,30.07,10.0,Calm,Calm,-,N/A,,Clear,0,2013-10-01 10:15:00
4:35 AM,48.0,34.7,60,30.08,10.0,ENE,4.6,-,N/A,,Clear,70,2013-10-01 10:35:00
4:55 AM,48.4,34.7,59,30.08,10.0,NE,6.9,-,N/A,,Clear,50,2013-10-01 10:55:00
5:15 AM,49.3,34.7,57,30.08,10.0,ENE,4.6,-,N/A,,Clear,70,2013-10-01 11:15:00
5:35 AM,46.2,34.3,63,30.09,10.0,Calm,Calm,-,N/A,,Clear,0,2013-10-01 11:35:00
5:55 AM,45.3,34.3,65,30.09,10.0,NNE,4.6,-,N/A,,Clear,30,2013-10-01 11:55:00
6:15 AM,45.5,34.3,65,30.09,10.0,ENE,4.6,-,N/A,,Clear,60,2013-10-01 12:15:00
6:35 AM,45.7,34.7,65,30.10,10.0,East,5.8,-,N/A,,Clear,90,2013-10-01 12:35:00
6:55 AM,45.0,34.5,67,30.10,10.0,Calm,Calm,-,N/A,,Clear,0,2013-10-01 12:55:00
7:15 AM,44.2,34.5,69,30.11,10.0,Calm,Calm,-,N/A,,Clear,0,2013-10-01 13:15:00
7:35 AM,45.0,34.9,68,30.11,10.0,NE,5.8,-,N/A,,Clear,50,2013-10-01 13:35:00
7:55 AM,48.7,34.9,59,30.11,10.0,NE,4.6,-,N/A,,Clear,40,2013-10-01 13:55:00
8:15 AM,51.8,34.7,52,30.12,10.0,East,6.9,-,N/A,,Clear,80,2013-10-01 14:15:00
8:35 AM,53.6,34.7,49,30.12,10.0,East,4.6,-,N/A,,Clear,80,2013-10-01 14:35:00
8:55 AM,54.1,35.1,49,30.12,10.0,East,4.6,-,N/A,,Clear,90,2013-10-01 14:55:00
9:15 AM,56.1,35.1,45,30.12,10.0,Calm,Calm,-,N/A,,Clear,0,2013-10-01 15:15:00
9:35 AM,57.9,34.9,42,30.12,10.0,Calm,Calm,-,N/A,,Clear,0,2013-10-01 15:35:00
9:55 AM,59.4,34.9,40,30.12,10.0,Calm,Calm,-,N/A,,Clear,0,2013-10-01 15:55:00
10:15 AM,60.8,35.4,39,30.11,10.0,Calm,Calm,-,N/A,,Clear,0,2013-10-01 16:15:00
10:35 AM,62.6,36.0,37,30.11,10.0,Calm,Calm,-,N/A,,Clear,0,2013-10-01 16:35:00
10:55 AM,64.2,34.5,33,30.10,10.0,East,3.5,-,N/A,,Clear,90,2013-10-01 16:55:00
11:15 AM,65.3,35.4,33,30.09,10.0,NE,3.5,-,N/A,,Clear,50,2013-10-01 17:15:00
11:35 AM,67.6,35.2,30,30.08,10.0,Calm,Calm,-,N/A,,Clear,0,2013-10-01 17:35:00
11:55 AM,70.0,34.7,27,30.07,10.0,Calm,Calm,-,N/A,,Clear,0,2013-10-01 17:55:00
12:15 PM,71.6,32.7,24,30.06,10.0,Calm,Calm,-,N/A,,Clear,0,2013-10-01 18:15:00
12:35 PM,74.7,34.5,23,30.05,10.0,Calm,Calm,-,N/A,,Clear,0,2013-10-01 18:35:00
12:55 PM,75.2,35.4,24,30.04,10.0,South,3.5,-,N/A,,Clear,190,2013-10-01 18:55:00
1:15 PM,76.6,32.0,20,30.03,10.0,SE,3.5,-,N/A,,Clear,140,2013-10-01 19:15:00
1:35 PM,78.4,30.0,17,30.02,10.0,SE,5.8,-,N/A,,Clear,140,2013-10-01 19:35:00
1:55 PM,79.2,27.0,15,30.01,10.0,SE,3.5,-,N/A,,Clear,130,2013-10-01 19:55:00
2:15 PM,79.7,26.1,14,30.00,10.0,SE,4.6,-,N/A,,Clear,140,2013-10-01 20:15:00
2:35 PM,80.6,25.5,13,30.00,10.0,Calm,Calm,-,N/A,,Clear,0,2013-10-01 20:35:00
2:55 PM,82.0,26.1,13,29.99,10.0,SW,3.5,-,N/A,,Clear,220,2013-10-01 20:55:00
3:15 PM,81.7,26.1,13,29.98,10.0,SSW,4.6,-,N/A,,Clear,210,2013-10-01 21:15:00
3:35 PM,82.6,25.9,13,29.98,10.0,SW,4.6,-,N/A,,Clear,230,2013-10-01 21:35:00
3:55 PM,83.1,25.0,12,29.97,10.0,South,6.9,-,N/A,,Clear,190,2013-10-01 21:55:00
4:15 PM,82.8,25.5,12,29.96,10.0,West,5.8,-,N/A,,Clear,280,2013-10-01 22:15:00
4:35 PM,83.3,26.8,13,29.95,10.0,SSW,6.9,-,N/A,,Clear,210,2013-10-01 22:35:00
4:55 PM,83.3,24.4,12,29.95,10.0,SSW,5.8,-,N/A,,Clear,210,2013-10-01 22:55:00
5:15 PM,83.1,25.2,12,29.95,10.0,SSW,8.1,-,N/A,,Clear,210,2013-10-01 23:15:00
5:35 PM,82.4,26.2,13,29.95,10.0,SW,10.4,-,N/A,,Clear,220,2013-10-01 23:35:00
5:55 PM,80.8,26.4,14,29.95,10.0,WSW,9.2,-,N/A,,Clear,250,2013-10-01 23:55:00
6:15 PM,79.7,26.8,14,29.96,10.0,West,8.1,-,N/A,,Clear,260,2013-10-02 00:15:00
6:35 PM,77.5,30.2,18,29.96,10.0,WSW,6.9,-,N/A,,Clear,240,2013-10-02 00:35:00
6:55 PM,72.3,33.8,24,29.96,10.0,SW,6.9,-,N/A,,Clear,220,2013-10-02 00:55:00
7:15 PM,70.0,34.2,27,29.97,10.0,SW,5.8,-,N/A,,Clear,220,2013-10-02 01:15:00
7:35 PM,68.4,34.0,28,29.98,10.0,SW,3.5,-,N/A,,Clear,230,2013-10-02 01:35:00
7:55 PM,65.8,34.7,32,29.98,10.0,WSW,3.5,-,N/A,,Clear,240,2013-10-02 01:55:00
8:15 PM,65.8,34.0,31,29.99,10.0,SSW,4.6,-,N/A,,Clear,210,2013-10-02 02:15:00
8:35 PM,64.0,33.8,32,30.00,10.0,SSW,3.5,-,N/A,,Clear,210,2013-10-02 02:35:00
8:55 PM,64.0,33.8,32,30.01,10.0,Calm,Calm,-,N/A,,Clear,0,2013-10-02 02:55:00
9:15 PM,59.5,34.3,39,30.02,10.0,Calm,Calm,-,N/A,,Clear,0,2013-10-02 03:15:00
9:35 PM,58.5,35.4,42,30.02,10.0,NE,5.8,-,N/A,,Clear,50,2013-10-02 03:35:00
9:55 PM,56.7,36.5,47,30.03,10.0,NNE,8.1,-,N/A,,Clear,30,2013-10-02 03:55:00
10:15 PM,59.2,33.6,38,30.03,10.0,North,8.1,-,N/A,,Clear,10,2013-10-02 04:15:00
10:35 PM,58.6,32.5,37,30.04,10.0,ESE,4.6,-,N/A,,Clear,110,2013-10-02 04:35:00
10:55 PM,54.7,34.2,46,30.05,10.0,East,6.9,-,N/A,,Clear,90,2013-10-02 04:55:00
11:15 PM,56.5,32.9,41,30.05,10.0,NE,6.9,-,N/A,,Clear,50,2013-10-02 05:15:00
11:35 PM,55.4,32.7,42,30.05,10.0,NE,8.1,-,N/A,,Clear,40,2013-10-02 05:35:00
11:55 PM,54.0,33.8,46,30.05,10.0,Calm,Calm,-,N/A,,Clear,0,2013-10-02 05:55:00